• Join FlightAware (Why Join?)
  • Login
  • US Flag 
09:14AM EDT


 

Airport Tracker/Info


-or-


 

Live Flight TrackerFlight Track Log ✈ TAM3362 ✈ 11-Jul-2013 ✈ SBGR / GRU - SBVT / VIX

Flight Track Log - Related Links

Times and Time Zones

All times are in EDT time to prevent confusion due to time zone crossing. See the TAM3362 flight status page for this flight to view local times or setup timezone preferences in your user account.

Time Position Orientation Groundspeed Altitude Reporting Facility
EDT Latitude Longitude Course Direction KTS MPH feet Rate Location/Type
08:19AM -22.8231 -45.2248 62° Northeast  Level Estimated
08:20AM -22.7848 -45.1474 62° Northeast  Level Estimated
08:21AM -22.7463 -45.0700 62° Northeast  Level Estimated
08:22AM -22.7079 -44.9927 62° Northeast  Level Estimated
08:23AM -22.6694 -44.9154 62° Northeast  Level Estimated
08:24AM -22.6309 -44.8381 62° Northeast  Level Estimated
08:25AM -22.5923 -44.7609 62° Northeast  Level Estimated
08:26AM -22.5537 -44.6838 62° Northeast  Level Estimated
08:27AM -22.5151 -44.6067 62° Northeast  Level Estimated
08:28AM -22.4764 -44.5296 62° Northeast  Level Estimated
08:29AM -22.4377 -44.4526 61° Northeast  Level Estimated
08:30AM -22.3989 -44.3756 61° Northeast  Level Estimated
08:31AM -22.3601 -44.2986 61° Northeast  Level Estimated
08:32AM -22.3213 -44.2217 61° Northeast  Level Estimated
08:33AM -22.2824 -44.1449 61° Northeast  Level Estimated
08:34AM -22.2436 -44.0681 61° Northeast  Level Estimated
08:35AM -22.2046 -43.9913 61° Northeast  Level Estimated
08:36AM -22.1657 -43.9146 61° Northeast  Level Estimated
08:37AM -22.1267 -43.8379 61° Northeast  Level Estimated
08:38AM -22.0876 -43.7612 61° Northeast  Level Estimated
08:39AM -22.0485 -43.6846 61° Northeast  Level Estimated
08:40AM -22.0094 -43.6081 61° Northeast  Level Estimated
08:41AM -21.9703 -43.5315 61° Northeast  Level Estimated
08:42AM -21.9311 -43.4551 61° Northeast  Level Estimated
08:43AM -21.8919 -43.3786 61° Northeast  Level Estimated
08:44AM -21.8526 -43.3022 61° Northeast  Level Estimated
08:45AM -21.8134 -43.2259 61° Northeast  Level Estimated
08:46AM -21.7740 -43.1496 61° Northeast  Level Estimated
08:47AM -21.7347 -43.0733 61° Northeast  Level Estimated
08:48AM -21.6953 -42.9971 61° Northeast  Level Estimated
08:49AM -21.6558 -42.9209 61° Northeast  Level Estimated
08:50AM -21.6164 -42.8447 61° Northeast  Level Estimated
08:51AM -21.5769 -42.7687 61° Northeast  Level Estimated
08:52AM -21.5374 -42.6926 61° Northeast  Level Estimated
08:53AM -21.4978 -42.6166 61° Northeast  Level Estimated
08:54AM -21.4582 -42.5406 61° Northeast  Level Estimated
08:55AM -21.4186 -42.4647 61° Northeast  Level Estimated
08:56AM -21.3789 -42.3888 61° Northeast  Level Estimated
08:57AM -21.3392 -42.3129 61° Northeast  Level Estimated
08:58AM -21.2995 -42.2371 61° Northeast  Level Estimated
08:59AM -21.2597 -42.1613 61° Northeast  Level Estimated
09:00AM -21.2199 -42.0856 61° Northeast  Level Estimated
09:01AM -21.1800 -42.0099 61° Northeast  Level Estimated
09:02AM -21.1402 -41.9343 61° Northeast  Level Estimated
09:03AM -21.1003 -41.8587 61° Northeast  Level Estimated
09:04AM -21.0603 -41.7831 60° Northeast  Level Estimated
09:05AM -21.0204 -41.7076 60° Northeast  Level Estimated
09:06AM -20.9804 -41.6321 60° Northeast  Level Estimated
09:07AM -20.9403 -41.5566 60° Northeast  Level Estimated
09:08AM -20.9003 -41.4812 60° Northeast  Level Estimated
09:09AM -20.8602 -41.4059 60° Northeast  Level Estimated
09:10AM -20.8200 -41.3306 60° Northeast  Level Estimated
09:11AM -20.7799 -41.2553 60° Northeast  Level Estimated
09:12AM -20.7397 -41.1800 60° Northeast  Level Estimated
09:13AM -20.6994 -41.1048 60° Northeast  Level Estimated
09:14AM -20.6591 -41.0297 60° Northeast  Level Estimated
09:15AM -20.6188 -40.9546 60° Northeast  Level Estimated
09:16AM -20.5785 -40.8795 60° Northeast  Level Estimated
09:17AM -20.5382 -40.8044 60° Northeast  Level Estimated
09:18AM -20.4977 -40.7294 60° Northeast  Level Estimated
09:19AM -20.4573 -40.6544 60° Northeast  Level Estimated
09:20AM -20.4169 -40.5795 60° Northeast  Level Estimated
09:21AM -20.3764 -40.5046 60° Northeast  Level Estimated
09:22AM -20.3358 -40.4298 60° Northeast  Level Estimated
09:23AM -20.2953 -40.3549 60° Northeast  Level Estimated
09:24AM -20.2581 -40.2864 60° Northeast  Level Estimated
09:25AM -20.2581 -40.2864 13° North  Level Estimated
09:26AM -20.2581 -40.2864 13° North  Level Estimated
09:27AM -20.2581 -40.2864 13° North  Level Estimated
09:28AM -20.2581 -40.2864 13° North  Level Estimated
09:29AM -20.2581 -40.2864 13° North  Level Estimated
09:30AM -20.2581 -40.2864 13° North  Level Estimated
09:31AM -20.2581 -40.2864 13° North  Level Estimated
09:32AM -20.2581 -40.2864 13° North  Level Estimated
09:33AM -20.2581 -40.2864 13° North  Level Estimated
09:34AM -20.2581 -40.2864 13° North  Level Estimated
09:35AM -20.2581 -40.2864 13° North  Level Estimated
09:36AM -20.2581 -40.2864 13° North  Level Estimated
09:37AM -20.2581 -40.2864 13° North  Level Estimated
09:38AM -20.2581 -40.2864 13° North  Level Estimated
09:39AM -20.2581 -40.2864 13° North  Level Estimated
09:40AM -20.2581 -40.2864 13° North  Level Estimated